Time;durP1;ratioP1;P1;durP2;ratioP2;P2;SDS_P1;SDS_P2;PMS_P1;PMS_P2;Temp;Humidity;BMP_temperature;BMP_pressure;BME280_temperature;BME280_humidity;BME280_pressure;Samples;Min_cycle;Max_cycle;Signal;HPM_P1;HPM_P2
2022/11/06 00:00:25;;;;;;;7.30;4.72;;;;;;;;;;6135071;23;20036;-88
2022/11/06 00:02:51;;;;;;;12.00;4.75;;;;;;;;;;6160370;23;20040;-89
2022/11/06 00:08:02;;;;;;;10.40;6.05;;;;;;;;;;6159585;23;20075;-89
2022/11/06 00:10:30;;;;;;;7.35;6.15;;;;;;;;;;6159642;23;20019;-88
2022/11/06 00:12:56;;;;;;;6.25;5.22;;;;;;;;;;6160367;23;20017;-87
2022/11/06 00:15:23;;;;;;;14.93;5.30;;;;;;;;;;6135044;23;20520;-88
2022/11/06 00:17:49;;;;;;;10.30;5.75;;;10.20;99.90;;;;;;6159866;23;20040;-90
2022/11/06 00:20:16;;;;;;;7.22;5.60;;;;;;;;;;6135245;23;20044;-87
2022/11/06 00:22:42;;;;;;;8.23;5.40;;;;;;;;;;6159979;23;20121;-91
2022/11/06 00:25:08;;;;;;;8.15;5.50;;;;;;;;;;6159945;23;20023;-92
2022/11/06 00:27:36;;;;;;;7.15;5.88;;;;;;;;;;6135541;23;20025;-87
2022/11/06 00:30:02;;;;;;;7.63;5.18;;;;;;;;;;6137020;23;20017;-91
2022/11/06 00:32:28;;;;;;;9.18;5.00;;;;;;;;;;6160215;23;20048;-90
2022/11/06 00:34:54;;;;;;;15.57;6.20;;;;;;;;;;6136291;23;20095;-93
2022/11/06 00:37:20;;;;;;;10.07;6.25;;;;;;;;;;6136917;23;20021;-93
2022/11/06 00:39:46;;;;;;;7.40;6.03;;;;;;;;;;6135704;23;20513;-94
2022/11/06 00:42:12;;;;;;;10.20;6.15;;;;;;;;;;6160472;23;20107;-91
2022/11/06 00:44:38;;;;;;;10.82;5.90;;;;;;;;;;6135613;23;20018;-91
2022/11/06 00:47:04;;;;;;;12.27;6.80;;;;;;;;;;6136750;23;20031;-90
2022/11/06 00:49:30;;;;;;;9.88;6.25;;;;;;;;;;6186373;23;20525;-91
2022/11/06 00:51:56;;;;;;;12.70;6.38;;;;;;;;;;6186776;23;20068;-90
2022/11/06 00:54:23;;;;;;;9.32;6.10;;;;;;;;;;6186650;23;20024;-93
2022/11/06 00:56:49;;;;;;;8.63;5.85;;;;;;;;;;6160094;23;20028;-92
2022/11/06 00:59:15;;;;;;;16.77;7.50;;;;;;;;;;6159849;23;20028;-89
2022/11/06 01:01:43;;;;;;;8.57;6.40;;;;;;;;;;6160274;23;20017;-93
2022/11/06 01:04:13;;;;;;;11.13;7.00;;;;;;;;;;6186083;23;20442;-89
2022/11/06 01:06:41;;;;;;;10.00;6.55;;;;;;;;;;6186124;23;20451;-91
2022/11/06 01:09:08;;;;;;;9.68;5.95;;;;;;;;;;6160273;23;20025;-92
2022/11/06 01:11:36;;;;;;;11.45;5.78;;;;;;;;;;6135479;23;20025;-95
2022/11/06 01:14:04;;;;;;;17.75;7.10;;;9.80;99.90;;;;;;6160206;23;20013;-91
2022/11/06 01:16:30;;;;;;;10.05;5.78;;;;;;;;;;6136144;23;20048;-92
2022/11/06 01:18:57;;;;;;;10.25;6.32;;;;;;;;;;6138745;23;20053;-93
2022/11/06 01:21:32;;;;;;;10.70;7.50;;;9.80;99.90;;;;;;6161165;23;20349;-85
2022/11/06 01:24:00;;;;;;;12.38;6.40;;;9.90;99.90;;;;;;6136810;23;20473;-85
2022/11/06 01:26:27;;;;;;;14.02;6.20;;;;;;;;;;6136389;23;20062;-86
2022/11/06 01:28:54;;;;;;;9.05;5.07;;;;;;;;;;6136574;23;20028;-85
2022/11/06 01:31:21;;;;;;;12.50;7.07;;;;;;;;;;6161088;23;20412;-85
2022/11/06 01:33:47;;;;;;;11.85;6.00;;;;;;;;;;6136208;23;20398;-85
2022/11/06 01:36:15;;;;;;;8.90;6.22;;;;;;;;;;6161036;23;20048;-85
2022/11/06 01:38:45;;;;;;;12.35;6.38;;;;;;;;;;6161042;23;20017;-85
2022/11/06 01:41:15;;;;;;;11.23;6.28;;;;;;;;;;6137168;23;20068;-87
2022/11/06 01:43:59;;;;;;;11.40;6.53;;;9.80;99.90;;;;;;6136296;23;20021;-86
2022/11/06 01:46:27;;;;;;;10.93;6.93;;;9.80;99.90;;;;;;6136393;23;20021;-86
2022/11/06 01:48:57;;;;;;;10.82;6.18;;;;;;;;;;6136473;23;20473;-86
2022/11/06 01:51:24;;;;;;;10.00;7.15;;;;;;;;;;6136564;23;20013;-86
2022/11/06 01:53:51;;;;;;;15.15;7.63;;;;;;;;;;6162226;23;20021;-86
2022/11/06 01:56:17;;;;;;;11.07;6.80;;;;;;;;;;6136122;23;20017;-86
2022/11/06 01:58:45;;;;;;;7.53;6.13;;;9.70;99.90;;;;;;6136681;23;20017;-86
2022/11/06 02:01:11;;;;;;;16.45;7.10;;;;;;;;;;6160793;23;20024;-85
2022/11/06 02:03:39;;;;;;;11.38;7.40;;;9.70;99.90;;;;;;6136102;23;20020;-86
2022/11/06 02:06:06;;;;;;;9.18;7.25;;;;;;;;;;6135531;23;20017;-86
2022/11/06 02:08:33;;;;;;;13.43;7.13;;;;;;;;;;6160770;23;20475;-86
2022/11/06 02:10:59;;;;;;;9.75;6.65;;;;;;;;;;6136422;23;20497;-86
2022/11/06 02:13:31;;;;;;;8.40;6.38;;;;;;;;;;6160680;23;20020;-86
2022/11/06 02:16:24;;;;;;;16.27;7.65;;;;;;;;;;6136215;23;20013;-87
2022/11/06 02:18:50;;;;;;;8.40;6.40;;;;;;;;;;6155350;23;20341;-87
2022/11/06 02:21:19;;;;;;;15.82;7.15;;;;;;;;;;6136054;23;20045;-87
2022/11/06 02:23:45;;;;;;;10.55;7.13;;;;;;;;;;6162867;23;20017;-86
2022/11/06 02:26:14;;;;;;;9.30;7.25;;;;;;;;;;6138490;23;20108;-85
2022/11/06 02:28:45;;;;;;;12.00;6.75;;;;;;;;;;6136057;23;20035;-87
2022/11/06 02:31:12;;;;;;;8.98;6.72;;;;;;;;;;6136195;23;20045;-86
2022/11/06 02:33:44;;;;;;;7.93;6.38;;;;;;;;;;6136019;23;20023;-85
2022/11/06 02:36:20;;;;;;;13.02;7.30;;;;;;;;;;6135843;23;20105;-86
2022/11/06 02:38:48;;;;;;;11.25;7.32;;;;;;;;;;6135799;23;20045;-86
2022/11/06 02:41:22;;;;;;;12.23;5.70;;;;;;;;;;6160383;23;20013;-85
2022/11/06 02:43:50;;;;;;;9.23;7.22;;;;;;;;;;6135749;23;20462;-86
2022/11/06 02:46:21;;;;;;;8.45;6.18;;;;;;;;;;6135708;23;20017;-87
2022/11/06 02:48:49;;;;;;;8.18;7.28;;;;;;;;;;6160327;23;20095;-86
2022/11/06 02:51:17;;;;;;;10.55;8.10;;;;;;;;;;6135737;23;20052;-86
2022/11/06 02:53:44;;;;;;;10.88;7.63;;;9.90;99.90;;;;;;6160569;23;20517;-85
2022/11/06 02:56:30;;;;;;;14.65;7.80;;;;;;;;;;6135750;23;20017;-86
2022/11/06 02:59:00;;;;;;;11.15;8.32;;;;;;;;;;6159831;23;20068;-85
2022/11/06 03:01:52;;;;;;;10.95;8.35;;;9.80;99.90;;;;;;6160509;23;20017;-85
2022/11/06 03:04:22;;;;;;;14.40;8.60;;;9.90;99.90;;;;;;6134291;23;20028;-86
2022/11/06 03:07:07;;;;;;;13.55;8.32;;;9.70;99.90;;;;;;6160032;23;20353;-85
2022/11/06 03:09:33;;;;;;;14.07;8.13;;;;;;;;;;6135647;23;20052;-85
2022/11/06 03:12:08;;;;;;;10.57;7.70;;;;;;;;;;6136974;23;20032;-86
2022/11/06 03:15:01;;;;;;;9.35;6.72;;;;;;;;;;6135606;23;20485;-86
2022/11/06 03:17:38;;;;;;;14.85;7.32;;;;;;;;;;6018967;23;20019;-87
2022/11/06 03:20:27;;;;;;;13.40;8.00;;;;;;;;;;6019011;23;20171;-86
2022/11/06 03:23:00;;;;;;;10.98;7.93;;;;;;;;;;5935154;24;20107;-86
2022/11/06 03:25:28;;;;;;;8.15;6.90;;;;;;;;;;5958447;24;20481;-86
2022/11/06 03:28:12;;;;;;;10.30;7.18;;;;;;;;;;5958121;24;20111;-87
2022/11/06 03:30:41;;;;;;;16.52;7.45;;;;;;;;;;5958209;24;20055;-86
2022/11/06 03:33:07;;;;;;;8.35;6.22;;;;;;;;;;5934853;24;20103;-85
2022/11/06 03:35:45;;;;;;;9.93;7.32;;;;;;;;;;5981569;24;20024;-86
2022/11/06 03:38:20;;;;;;;11.15;7.72;;;;;;;;;;5981370;24;20020;-85
2022/11/06 03:40:48;;;;;;;8.60;6.97;;;;;;;;;;5957659;24;20027;-86
2022/11/06 03:43:16;;;;;;;12.52;7.28;;;;;;;;;;5981299;24;20162;-85
2022/11/06 03:45:43;;;;;;;14.35;7.00;;;;;;;;;;5981282;24;20028;-86
2022/11/06 03:48:18;;;;;;;9.63;6.85;;;;;;;;;;5935006;24;20036;-86
2022/11/06 03:50:47;;;;;;;8.43;6.78;;;;;;;;;;5934786;24;20024;-86
2022/11/06 03:53:31;;;;;;;12.73;8.02;;;10.00;99.90;;;;;;5967731;23;20034;-86
2022/11/06 03:56:00;;;;;;;13.07;8.57;;;;;;;;;;6094944;23;20057;-86
2022/11/06 03:58:29;;;;;;;10.02;7.47;;;;;;;;;;6094841;23;20015;-86
2022/11/06 04:00:56;;;;;;;14.02;8.25;;;;;;;;;;6130174;23;20024;-85
2022/11/06 04:03:43;;;;;;;11.80;7.97;;;;;;;;;;6159591;23;20489;-85
2022/11/06 04:06:18;;;;;;;18.75;8.13;;;9.90;99.90;;;;;;6134900;23;20020;-86
2022/11/06 04:14:21;;;;;;;11.00;7.57;;;10.10;99.90;;;;;;6159553;23;20024;-87
2022/11/06 04:16:50;;;;;;;13.90;8.80;;;;;;;;;;6159848;23;20052;-86
2022/11/06 04:19:18;;;;;;;10.18;7.43;;;10.10;99.90;;;;;;6135553;23;20434;-85
2022/11/06 04:22:03;;;;;;;13.18;8.23;;;;;;;;;;6135055;23;20021;-86
2022/11/06 04:27:26;;;;;;;10.68;7.50;;;;;;;;;;6159361;23;20021;-86
2022/11/06 04:30:01;;;;;;;11.98;9.20;;;;;;;;;;6134991;23;20051;-86
2022/11/06 04:32:45;;;;;;;16.23;8.70;;;10.20;99.90;;;;;;6134794;23;20020;-86
2022/11/06 04:35:46;;;;;;;14.73;9.07;;;10.10;99.90;;;;;;6134759;23;20092;-86
2022/11/06 04:38:24;;;;;;;14.40;9.40;;;;;;;;;;6128943;23;20021;-86
2022/11/06 04:41:05;;;;;;;19.75;7.80;;;;;;;;;;6134850;23;20032;-87
2022/11/06 04:43:46;;;;;;;11.68;8.00;;;;;;;;;;6159331;23;20390;-85
2022/11/06 04:46:15;;;;;;;9.23;7.80;;;;;;;;;;6159224;23;20030;-86
2022/11/06 04:48:42;;;;;;;13.48;7.85;;;;;;;;;;6134706;23;20028;-86
2022/11/06 04:51:10;;;;;;;9.32;7.38;;;;;;;;;;6159676;23;20013;-86
2022/11/06 04:53:36;;;;;;;12.45;8.10;;;;;;;;;;6162492;23;20021;-85
2022/11/06 04:56:09;;;;;;;12.63;7.65;;;;;;;;;;6137852;23;20017;-86
2022/11/06 04:58:35;;;;;;;12.00;7.70;;;;;;;;;;6137817;23;20366;-86
2022/11/06 05:01:01;;;;;;;10.32;7.07;;;;;;;;;;6137963;23;20017;-86
2022/11/06 05:03:27;;;;;;;10.32;7.13;;;;;;;;;;6137840;23;20021;-86
2022/11/06 05:05:53;;;;;;;9.50;7.63;;;;;;;;;;6137710;23;20014;-86
2022/11/06 05:08:19;;;;;;;11.98;7.22;;;;;;;;;;6139192;23;20047;-86
2022/11/06 05:10:46;;;;;;;12.68;7.93;;;;;;;;;;6137968;23;20017;-86
2022/11/06 05:13:12;;;;;;;12.60;7.72;;;;;;;;;;6138413;23;20059;-87
2022/11/06 05:15:38;;;;;;;12.63;7.25;;;;;;;;;;6137820;23;20482;-87
2022/11/06 05:18:05;;;;;;;15.20;7.30;;;;;;;;;;6137954;23;20032;-87
2022/11/06 05:20:31;;;;;;;9.88;7.47;;;;;;;;;;6137808;23;20075;-87
2022/11/06 05:22:57;;;;;;;10.43;6.90;;;;;;;;;;6137742;23;20028;-88
2022/11/06 05:25:28;;;;;;;11.73;7.45;;;;;;;;;;6139289;23;20024;-87
2022/11/06 05:27:54;;;;;;;7.68;6.47;;;;;;;;;;6138137;23;20031;-87
2022/11/06 05:30:20;;;;;;;9.63;5.80;;;;;;;;;;6137893;23;20017;-87
2022/11/06 05:32:46;;;;;;;11.73;7.13;;;;;;;;;;6137791;23;20354;-86
2022/11/06 05:35:12;;;;;;;9.35;6.90;;;;;;;;;;6137812;23;20017;-86
2022/11/06 05:37:38;;;;;;;12.40;8.05;;;;;;;;;;6138055;23;20530;-86
2022/11/06 05:40:04;;;;;;;13.07;7.13;;;;;;;;;;6162482;23;20100;-87
2022/11/06 05:42:30;;;;;;;16.88;6.43;;;;;;;;;;6162352;23;20021;-86
2022/11/06 05:44:56;;;;;;;10.02;6.88;;;;;;;;;;6137827;23;20020;-86
2022/11/06 05:47:22;;;;;;;11.38;6.50;;;;;;;;;;6137709;23;20031;-87
2022/11/06 05:49:48;;;;;;;9.50;6.38;;;;;;;;;;6162436;23;20017;-86
2022/11/06 05:52:14;;;;;;;10.50;7.32;;;;;;;;;;6162391;23;20028;-87
2022/11/06 05:54:40;;;;;;;8.32;5.95;;;;;;;;;;6138384;23;20346;-87
2022/11/06 05:57:06;;;;;;;11.40;7.28;;;;;;;;;;6162501;23;20024;-86
2022/11/06 05:59:32;;;;;;;8.20;6.38;;;;;;;;;;6162365;23;20454;-86
2022/11/06 06:01:59;;;;;;;8.75;6.45;;;;;;;;;;6163654;23;20100;-87
2022/11/06 06:04:25;;;;;;;9.25;6.18;;;;;;;;;;6135605;23;20357;-86
2022/11/06 06:06:51;;;;;;;11.68;5.85;;;;;;;;;;6135849;23;20025;-88
2022/11/06 06:09:17;;;;;;;8.80;6.25;;;;;;;;;;6161617;23;20572;-88
2022/11/06 06:11:43;;;;;;;7.47;6.45;;;;;;;;;;6136158;23;20346;-88
2022/11/06 06:14:09;;;;;;;10.52;7.72;;;;;;;;;;6136183;23;20075;-88
2022/11/06 06:16:35;;;;;;;9.77;6.15;;;;;;;;;;6160689;23;20024;-88
2022/11/06 06:19:01;;;;;;;7.10;6.22;;;;;;;;;;6160613;23;20091;-87
2022/11/06 06:21:27;;;;;;;8.77;5.97;;;;;;;;;;6160617;23;20103;-88
2022/11/06 06:23:53;;;;;;;8.48;5.10;;;;;;;;;;6136116;23;20064;-88
2022/11/06 06:26:19;;;;;;;14.40;6.72;;;;;;;;;;6160533;23;20017;-88
2022/11/06 06:28:48;;;;;;;8.85;5.88;;;9.80;99.90;;;;;;6135986;23;20472;-87
2022/11/06 06:31:14;;;;;;;6.35;5.75;;;;;;;;;;6136042;23;20028;-88
2022/11/06 06:33:40;;;;;;;9.00;5.57;;;;;;;;;;6135759;23;20099;-88
2022/11/06 06:36:06;;;;;;;8.82;5.50;;;;;;;;;;6160423;23;20017;-87
2022/11/06 06:38:32;;;;;;;11.05;6.20;;;;;;;;;;6160534;23;20013;-86
2022/11/06 06:41:02;;;;;;;7.28;5.20;;;;;;;;;;6136023;23;20048;-88
2022/11/06 06:43:28;;;;;;;7.25;5.20;;;;;;;;;;6160381;23;20025;-88
2022/11/06 06:45:57;;;;;;;9.77;5.95;;;;;;;;;;6135790;23;20589;-88
2022/11/06 06:48:23;;;;;;;6.43;5.57;;;;;;;;;;6135705;23;20021;-88
2022/11/06 06:50:49;;;;;;;8.00;5.85;;;;;;;;;;6135687;23;20096;-88
2022/11/06 06:53:15;;;;;;;9.35;5.50;;;;;;;;;;6160253;23;20021;-88
2022/11/06 06:55:41;;;;;;;8.98;5.32;;;;;;;;;;6135741;23;20013;-88
2022/11/06 06:58:07;;;;;;;6.90;5.70;;;;;;;;;;6159888;23;20062;-88
2022/11/06 07:00:33;;;;;;;11.80;5.72;;;;;;;;;;6160330;23;20445;-88
2022/11/06 07:03:01;;;;;;;11.63;6.30;;;;;;;;;;6160427;23;20017;-86
2022/11/06 07:05:27;;;;;;;9.15;6.55;;;;;;;;;;6135732;23;20028;-85
2022/11/06 07:07:53;;;;;;;10.30;5.80;;;;;;;;;;6135325;23;20028;-86
2022/11/06 07:10:19;;;;;;;12.15;6.38;;;;;;;;;;6135792;23;20072;-86
2022/11/06 07:12:45;;;;;;;8.20;5.32;;;;;;;;;;6160465;23;20056;-86
2022/11/06 07:15:11;;;;;;;18.42;6.32;;;;;;;;;;6160627;23;20342;-86
2022/11/06 07:17:37;;;;;;;18.17;5.75;;;;;;;;;;6160532;23;20017;-86
2022/11/06 07:20:04;;;;;;;17.27;6.15;;;;;;;;;;6160474;23;20101;-86
2022/11/06 07:22:30;;;;;;;13.10;5.82;;;;;;;;;;6160960;23;20071;-86
2022/11/06 07:24:56;;;;;;;11.45;5.82;;;;;;;;;;6160615;23;20013;-86
2022/11/06 07:27:22;;;;;;;12.27;5.30;;;;;;;;;;6160220;23;20513;-86
2022/11/06 07:29:48;;;;;;;12.68;6.53;;;;;;;;;;6136137;23;20024;-86
2022/11/06 07:32:14;;;;;;;8.15;5.95;;;;;;;;;;6162172;23;20338;-86
2022/11/06 07:34:40;;;;;;;7.72;5.18;;;;;;;;;;6161406;23;20024;-86
2022/11/06 07:37:06;;;;;;;11.00;5.57;;;;;;;;;;6186470;23;20443;-85
2022/11/06 07:39:32;;;;;;;6.60;5.15;;;;;;;;;;6160457;23;20355;-86
2022/11/06 07:41:58;;;;;;;13.88;5.13;;;;;;;;;;6160451;23;20088;-86
2022/11/06 07:44:24;;;;;;;10.25;4.75;;;;;;;;;;6136433;23;20059;-86
2022/11/06 07:46:50;;;;;;;8.82;5.05;;;;;;;;;;6135544;23;20024;-85
2022/11/06 07:49:16;;;;;;;14.57;5.03;;;;;;;;;;6186940;23;20020;-85
2022/11/06 07:51:43;;;;;;;6.15;3.92;;;;;;;;;;6186782;23;20095;-84
2022/11/06 07:54:10;;;;;;;8.00;4.13;;;;;;;;;;6159785;23;20072;-84
2022/11/06 07:56:36;;;;;;;7.00;4.35;;;;;;;;;;6186271;23;20048;-85
2022/11/06 07:59:02;;;;;;;11.57;4.85;;;;;;;;;;6186337;23;20013;-84
2022/11/06 08:01:28;;;;;;;6.47;3.97;;;;;;;;;;6134969;23;20049;-85
2022/11/06 08:03:54;;;;;;;9.15;5.07;;;;;;;;;;6185990;23;20024;-85
2022/11/06 08:06:20;;;;;;;6.63;4.00;;;;;;;;;;6186346;23;20025;-85
2022/11/06 08:08:46;;;;;;;9.77;4.50;;;;;;;;;;6186191;23;20028;-86
2022/11/06 08:11:12;;;;;;;5.80;4.22;;;;;;;;;;6185865;23;20450;-85
2022/11/06 08:13:38;;;;;;;12.13;4.60;;;;;;;;;;6135341;23;20478;-85
2022/11/06 08:16:05;;;;;;;9.32;4.93;;;;;;;;;;6134841;23;20396;-85
2022/11/06 08:18:31;;;;;;;5.20;3.78;;;;;;;;;;6159533;23;20013;-85
2022/11/06 08:20:57;;;;;;;7.32;4.65;;;;;;;;;;6159529;23;20024;-84
2022/11/06 08:23:23;;;;;;;9.35;4.80;;;;;;;;;;6159539;23;20095;-84
2022/11/06 08:25:52;;;;;;;10.85;4.70;;;;;;;;;;6159284;23;20025;-85
2022/11/06 08:28:18;;;;;;;14.43;4.90;;;;;;;;;;6134555;23;20049;-84
2022/11/06 08:30:44;;;;;;;7.15;3.97;;;;;;;;;;6134862;23;20358;-85
2022/11/06 08:33:10;;;;;;;8.23;4.38;;;;;;;;;;6134666;23;20053;-86
2022/11/06 08:35:36;;;;;;;11.38;4.10;;;;;;;;;;6134832;23;20024;-84
2022/11/06 08:38:03;;;;;;;10.65;5.18;;;;;;;;;;6159378;23;20020;-85
2022/11/06 08:40:29;;;;;;;12.88;4.65;;;;;;;;;;6159375;23;20473;-84
2022/11/06 08:43:02;;;;;;;4.93;3.95;;;;;;;;;;6135726;23;20025;-84
2022/11/06 08:45:28;;;;;;;5.40;4.13;;;;;;;;;;6159345;23;20017;-85
2022/11/06 08:47:54;;;;;;;7.55;3.83;;;;;;;;;;6134661;23;20275;-85
2022/11/06 08:50:20;;;;;;;5.00;3.47;;;;;;;;;;6134776;23;20028;-85
2022/11/06 08:52:46;;;;;;;12.13;4.35;;;;;;;;;;6134740;23;20028;-85
2022/11/06 08:55:12;;;;;;;15.88;3.63;;;;;;;;;;6159222;23;20099;-85
2022/11/06 08:57:38;;;;;;;13.55;4.03;;;;;;;;;;6134637;23;20052;-85
2022/11/06 09:00:05;;;;;;;9.02;3.88;;;;;;;;;;6134682;23;20534;-85
2022/11/06 09:02:31;;;;;;;8.32;4.50;;;;;;;;;;6134519;23;20450;-86
2022/11/06 09:04:57;;;;;;;10.30;4.53;;;;;;;;;;6134697;23;20017;-85
2022/11/06 09:07:23;;;;;;;15.68;4.13;;;;;;;;;;6134375;23;20083;-85
2022/11/06 09:09:49;;;;;;;11.65;4.85;;;;;;;;;;6159213;23;20088;-85
2022/11/06 09:12:15;;;;;;;6.90;3.55;;;;;;;;;;6185853;23;20024;-86
2022/11/06 09:14:41;;;;;;;8.95;3.70;;;;;;;;;;6134646;23;20053;-88
2022/11/06 09:17:07;;;;;;;6.30;3.50;;;;;;;;;;6159217;23;20075;-88
2022/11/06 09:19:33;;;;;;;11.90;3.80;;;;;;;;;;6134616;23;20013;-88
2022/11/06 09:21:59;;;;;;;4.60;3.45;;;;;;;;;;6160206;23;20083;-85
2022/11/06 09:24:25;;;;;;;6.35;3.13;;;;;;;;;;6185855;23;20028;-85
2022/11/06 09:26:51;;;;;;;9.07;3.45;;;;;;;;;;6159320;23;20024;-85
2022/11/06 09:29:17;;;;;;;10.95;4.00;;;;;;;;;;6159149;23;20017;-85
2022/11/06 09:31:43;;;;;;;7.22;3.63;;;;;;;;;;6185417;23;20525;-85
2022/11/06 09:34:09;;;;;;;6.20;3.70;;;;;;;;;;6159091;23;20052;-88
2022/11/06 09:36:35;;;;;;;10.43;3.58;;;;;;;;;;6134441;23;20028;-85
2022/11/06 09:39:01;;;;;;;6.20;3.65;;;;;;;;;;6160849;23;20021;-86
2022/11/06 09:41:36;;;;;;;8.55;3.30;;;;;;;;;;6160954;23;20017;-85
2022/11/06 09:44:02;;;;;;;8.45;3.42;;;;;;;;;;6160865;23;20529;-85
2022/11/06 09:46:37;;;;;;;4.45;3.42;;;10.50;99.90;;;;;;6136305;23;20099;-85
2022/11/06 09:49:11;;;;;;;6.22;3.42;;;;;;;;;;6136415;23;20107;-85
2022/11/06 09:51:41;;;;;;;6.65;3.28;;;;;;;;;;6160812;23;20032;-85
2022/11/06 09:54:13;;;;;;;12.60;3.67;;;;;;;;;;6160697;23;20092;-86
2022/11/06 09:56:40;;;;;;;7.78;3.40;;;;;;;;;;6136448;23;20029;-85
2022/11/06 09:59:10;;;;;;;6.90;3.25;;;;;;;;;;6136232;23;20516;-86
2022/11/06 10:01:45;;;;;;;12.73;4.13;;;;;;;;;;6160681;23;20527;-85
2022/11/06 10:04:21;;;;;;;4.70;3.33;;;;;;;;;;6135946;23;20063;-85
2022/11/06 10:06:47;;;;;;;10.27;2.88;;;;;;;;;;6160376;23;20017;-85
2022/11/06 10:09:13;;;;;;;14.77;3.55;;;;;;;;;;6161258;23;20470;-89
2022/11/06 10:11:50;;;;;;;10.32;3.00;;;;;;;;;;6136486;23;20024;-90
2022/11/06 10:14:42;;;;;;;5.18;3.17;;;;;;;;;;6136380;23;20117;-91
2022/11/06 10:17:18;;;;;;;7.60;3.63;;;;;;;;;;6131064;23;20017;-89
2022/11/06 10:20:00;;;;;;;7.30;3.05;;;;;;;;;;6136616;23;20014;-90
2022/11/06 10:22:46;;;;;;;10.25;3.78;;;;;;;;;;6136330;23;20032;-91
2022/11/06 10:25:21;;;;;;;6.95;3.38;;;10.90;99.90;;;;;;6160702;23;20056;-90
2022/11/06 10:27:56;;;;;;;6.55;3.00;;;;;;;;;;6136523;23;20446;-90
2022/11/06 10:30:22;;;;;;;6.45;3.35;;;;;;;;;;6160856;23;20063;-89
2022/11/06 10:33:00;;;;;;;6.20;3.83;;;;;;;;;;6136494;23;20028;-89
2022/11/06 10:35:30;;;;;;;9.10;4.10;;;;;;;;;;6136227;23;20454;-90
2022/11/06 10:38:02;;;;;;;7.57;4.20;;;;;;;;;;6136596;23;20028;-88
2022/11/06 10:40:30;;;;;;;4.07;3.58;;;;;;;;;;6136021;23;20032;-89
2022/11/06 10:43:23;;;;;;;7.00;2.92;;;11.10;99.90;;;;;;6135361;23;20107;-89
2022/11/06 10:45:51;;;;;;;5.07;3.25;;;;;;;;;;6160687;23;20450;-90
2022/11/06 10:48:23;;;;;;;11.73;3.88;;;;;;;;;;6135910;23;20443;-93
2022/11/06 10:51:09;;;;;;;5.63;3.55;;;;;;;;;;6137446;23;20016;-91
2022/11/06 10:53:46;;;;;;;5.85;2.80;;;;;;;;;;6044040;23;20035;-90
2022/11/06 10:56:18;;;;;;;6.25;2.95;;;;;;;;;;6067831;23;20021;-86
2022/11/06 10:58:44;;;;;;;10.95;2.90;;;;;;;;;;6020062;23;20083;-88
2022/11/06 11:01:13;;;;;;;8.50;2.97;;;;;;;;;;6043570;23;20086;-89
2022/11/06 11:03:41;;;;;;;7.47;2.67;;;;;;;;;;6044102;23;20027;-90
2022/11/06 11:06:08;;;;;;;9.57;2.92;;;;;;;;;;6043377;23;20036;-88
2022/11/06 11:08:39;;;;;;;10.15;3.38;;;;;;;;;;6042981;23;20026;-89
2022/11/06 11:11:05;;;;;;;12.27;3.30;;;;;;;;;;6042894;23;20062;-88
2022/11/06 11:13:31;;;;;;;5.32;3.00;;;;;;;;;;6043813;23;20026;-86
2022/11/06 11:15:58;;;;;;;6.07;3.17;;;;;;;;;;6019154;23;20479;-89
2022/11/06 11:18:32;;;;;;;7.30;3.13;;;;;;;;;;6067107;23;20019;-88
2022/11/06 11:21:15;;;;;;;3.97;2.47;;;;;;;;;;6066824;23;20019;-88
2022/11/06 11:23:42;;;;;;;7.03;3.63;;;;;;;;;;6042765;23;20018;-91
2022/11/06 11:26:20;;;;;;;8.23;2.60;;;;;;;;;;6066859;23;20440;-88
2022/11/06 11:28:54;;;;;;;6.45;3.13;;;;;;;;;;6043642;23;20029;-90
2022/11/06 11:31:20;;;;;;;7.15;3.05;;;;;;;;;;6134610;23;20021;-88
2022/11/06 11:33:53;;;;;;;5.43;2.90;;;;;;;;;;6186559;23;20120;-90
2022/11/06 11:36:19;;;;;;;7.68;2.95;;;;;;;;;;6135815;23;20051;-91
2022/11/06 11:38:45;;;;;;;6.78;2.97;;;;;;;;;;6136739;23;20021;-89
2022/11/06 11:41:22;;;;;;;4.95;2.90;;;;;;;;;;6135698;23;20013;-90
2022/11/06 11:43:55;;;;;;;7.43;3.60;;;;;;;;;;6135652;23;20514;-90
2022/11/06 11:46:21;;;;;;;4.57;3.28;;;;;;;;;;6161056;23;20020;-89
2022/11/06 11:48:55;;;;;;;5.45;2.90;;;;;;;;;;6160288;23;20017;-90
2022/11/06 11:51:28;;;;;;;12.25;3.20;;;;;;;;;;6187829;23;20048;-89
2022/11/06 11:53:56;;;;;;;8.57;4.00;;;;;;;;;;6137031;23;20057;-90
2022/11/06 11:56:23;;;;;;;7.13;3.22;;;;;;;;;;6160644;23;20055;-89
2022/11/06 11:58:59;;;;;;;9.63;3.03;;;;;;;;;;6136054;23;20067;-87
2022/11/06 12:01:33;;;;;;;7.22;3.63;;;;;;;;;;6135647;23;20024;-89
2022/11/06 12:04:09;;;;;;;5.80;2.90;;;;;;;;;;6186777;23;20028;-87
2022/11/06 12:06:35;;;;;;;6.10;2.83;;;;;;;;;;6187090;23;20024;-88
2022/11/06 12:09:07;;;;;;;7.05;2.90;;;;;;;;;;6136183;23;20462;-86
2022/11/06 12:11:33;;;;;;;6.93;3.45;;;;;;;;;;6136821;23;20017;-88
2022/11/06 12:14:24;;;;;;;7.30;2.88;;;11.60;99.90;;;;;;6136122;23;20020;-90
2022/11/06 12:16:51;;;;;;;5.88;3.50;;;;;;;;;;6161698;23;20071;-89
2022/11/06 12:19:21;;;;;;;4.05;2.70;;;;;;;;;;6188051;23;20028;-88
2022/11/06 12:21:53;;;;;;;8.20;2.78;;;;;;;;;;6159742;23;20013;-86
2022/11/06 12:24:27;;;;;;;9.88;2.85;;;;;;;;;;6135678;23;20021;-89
2022/11/06 12:27:03;;;;;;;6.68;2.90;;;;;;;;;;6186568;23;20316;-88
2022/11/06 12:29:43;;;;;;;4.15;2.80;;;;;;;;;;6159692;23;20026;-89
2022/11/06 12:32:22;;;;;;;7.00;2.85;;;;;;;;;;6135306;23;20079;-89
2022/11/06 12:34:54;;;;;;;8.55;2.90;;;;;;;;;;6160890;23;20069;-91
2022/11/06 12:37:39;;;;;;;4.43;2.53;;;11.90;99.90;;;;;;6135453;23;20104;-86
2022/11/06 12:40:25;;;;;;;3.17;2.22;;;;;;;;;;6136008;23;20371;-86
2022/11/06 12:43:10;;;;;;;5.22;4.63;;;;;;;;;;6165866;23;20052;-88
2022/11/06 12:45:48;;;;;;;6.13;2.28;;;;;;;;;;6160366;23;20355;-88
2022/11/06 12:48:26;;;;;;;6.07;2.22;;;;;;;;;;6135224;23;20025;-88
2022/11/06 12:51:05;;;;;;;4.93;2.65;;;;;;;;;;6136924;23;20107;-87
2022/11/06 12:53:42;;;;;;;6.53;2.47;;;;;;;;;;6135045;23;20021;-88
2022/11/06 12:56:13;;;;;;;6.82;2.60;;;;;;;;;;6160322;23;20075;-86
2022/11/06 12:58:40;;;;;;;9.10;2.85;;;;;;;;;;6186286;23;20525;-89
2022/11/06 13:01:06;;;;;;;2.47;2.05;;;;;;;;;;6159605;23;20017;-87
2022/11/06 13:03:32;;;;;;;5.65;2.65;;;;;;;;;;6186200;23;20079;-88
2022/11/06 13:06:31;;;;;;;8.30;2.10;;;;;;;;;;6159749;23;20013;-89
2022/11/06 13:09:19;;;;;;;5.22;2.72;;;;;;;;;;6097544;23;20020;-91
2022/11/06 13:11:52;;;;;;;8.05;2.97;;;;;;;;;;6162428;23;20092;-91
2022/11/06 13:14:40;;;;;;;4.50;2.80;;;;;;;;;;6140751;23;20021;-92
2022/11/06 13:17:18;;;;;;;8.30;3.22;;;;;;;;;;6165795;23;20048;-92
2022/11/06 13:20:03;;;;;;;3.20;2.90;;;;;;;;;;6142723;23;20017;-91
2022/11/06 13:22:35;;;;;;;8.77;2.97;;;;;;;;;;6194286;23;20086;-93
2022/11/06 13:25:05;;;;;;;10.95;2.72;;;;;;;;;;6164509;23;20147;-86
2022/11/06 13:27:38;;;;;;;6.78;2.97;;;;;;;;;;6163291;23;20036;-94
2022/11/06 13:30:10;;;;;;;6.65;2.92;;;;;;;;;;6163012;23;20032;-93
2022/11/06 13:32:37;;;;;;;5.43;2.30;;;;;;;;;;6162673;23;20017;-92
2022/11/06 13:35:04;;;;;;;2.05;1.83;;;;;;;;;;6162899;23;20048;-89
2022/11/06 13:37:35;;;;;;;5.43;2.20;;;;;;;;;;6137581;23;20048;-93
2022/11/06 13:40:05;;;;;;;5.38;3.03;;;;;;;;;;6162409;23;20044;-92
2022/11/06 13:42:37;;;;;;;2.15;1.95;;;;;;;;;;6162659;23;20064;-91
2022/11/06 13:45:06;;;;;;;3.88;2.13;;;;;;;;;;6162096;23;20020;-93
2022/11/06 13:47:40;;;;;;;3.30;1.95;;;;;;;;;;6188259;23;20025;-88
2022/11/06 13:50:24;;;;;;;6.72;2.83;;;;;;;;;;6187472;23;20446;-88
2022/11/06 13:52:53;;;;;;;4.10;2.13;;;;;;;;;;6162396;23;20016;-92
2022/11/06 13:55:24;;;;;;;7.57;2.70;;;;;;;;;;6161782;23;20341;-90
2022/11/06 13:57:53;;;;;;;5.57;2.47;;;;;;;;;;6188148;23;20028;-91
2022/11/06 14:00:24;;;;;;;5.70;2.88;;;;;;;;;;6187185;23;20017;-92
2022/11/06 14:03:09;;;;;;;7.93;2.53;;;;;;;;;;6136904;23;20017;-89
2022/11/06 14:05:41;;;;;;;6.18;2.58;;;;;;;;;;6188546;23;20401;-89
2022/11/06 14:08:12;;;;;;;5.63;1.98;;;;;;;;;;6160952;23;20346;-92
2022/11/06 14:10:48;;;;;;;5.25;2.95;;;;;;;;;;6136981;23;20099;-90
2022/11/06 14:13:15;;;;;;;6.53;2.53;;;;;;;;;;6187521;23;20021;-89
2022/11/06 14:15:46;;;;;;;5.20;3.20;;;;;;;;;;6161330;23;20351;-89
2022/11/06 14:18:22;;;;;;;2.78;2.05;;;;;;;;;;6136274;23;20021;-92
2022/11/06 14:21:11;;;;;;;6.20;2.10;;;;;;;;;;6161164;23;20016;-90
2022/11/06 14:23:39;;;;;;;9.15;2.65;;;;;;;;;;6161982;23;20021;-90
2022/11/06 14:26:09;;;;;;;7.13;2.55;;;;;;;;;;6187119;23;20029;-93
2022/11/06 14:28:45;;;;;;;7.75;2.42;;;;;;;;;;6161563;23;20092;-91
2022/11/06 14:31:31;;;;;;;4.43;2.40;;;;;;;;;;6161564;23;20382;-92
2022/11/06 14:34:00;;;;;;;7.22;2.63;;;;;;;;;;6161180;23;20017;-93
2022/11/06 14:36:30;;;;;;;8.05;2.60;;;;;;;;;;6137382;23;20017;-93
2022/11/06 14:38:56;;;;;;;5.40;2.25;;;;;;;;;;6136735;23;20021;-93
2022/11/06 14:41:35;;;;;;;4.25;2.35;;;;;;;;;;6136741;23;20101;-93
2022/11/06 14:44:05;;;;;;;9.40;2.60;;;;;;;;;;6137026;23;20059;-91
2022/11/06 14:46:32;;;;;;;7.07;2.78;;;;;;;;;;6161612;23;20017;-86
2022/11/06 14:49:19;;;;;;;4.45;2.50;;;11.60;99.90;;;;;;6135762;23;20354;-85
2022/11/06 14:52:00;;;;;;;6.07;2.45;;;11.60;99.90;;;;;;6160211;23;20354;-84
2022/11/06 14:54:26;;;;;;;4.95;2.58;;;;;;;;;;6135600;23;20096;-85
2022/11/06 14:56:53;;;;;;;8.65;2.40;;;;;;;;;;6160306;23;20480;-85